createdAt,value
2022-10-14T00:02:25.655Z,982.28
2022-10-14T00:07:57.409Z,982.29
2022-10-14T00:13:35.574Z,982.29
2022-10-14T00:19:07.253Z,982.18
2022-10-14T00:24:38.902Z,982.21
2022-10-14T00:30:10.782Z,982.24
2022-10-14T00:35:42.379Z,982.32
2022-10-14T00:41:14.133Z,982.33
2022-10-14T00:46:45.866Z,982.39
2022-10-14T00:52:17.647Z,982.47
2022-10-14T00:57:49.324Z,982.49
2022-10-14T01:03:20.980Z,982.47
2022-10-14T01:08:52.846Z,982.46
2022-10-14T01:14:30.840Z,982.36
2022-10-14T01:20:02.639Z,982.41
2022-10-14T01:25:34.427Z,982.43
2022-10-14T01:31:06.124Z,982.35
2022-10-14T01:36:37.890Z,982.28
2022-10-14T01:42:09.545Z,982.3
2022-10-14T01:47:41.321Z,982.16
2022-10-14T01:53:12.973Z,982.07
2022-10-14T01:58:44.862Z,981.48
2022-10-14T02:04:16.398Z,981.55
2022-10-14T02:09:48.169Z,981.1
2022-10-14T02:15:24.280Z,981.41
2022-10-14T02:20:56.076Z,981.51
2022-10-14T02:26:27.647Z,981.86
2022-10-14T02:31:59.471Z,981.57
2022-10-14T02:37:31.261Z,981.53
2022-10-14T02:43:02.813Z,981.8
2022-10-14T02:48:34.670Z,981.97
2022-10-14T02:54:06.374Z,982.14
2022-10-14T02:59:38.095Z,982.33
2022-10-14T03:05:09.841Z,982.29
2022-10-14T03:10:41.545Z,982.31
2022-10-14T03:16:17.641Z,982.36
2022-10-14T03:21:49.393Z,982.28
2022-10-14T03:27:21.107Z,982.24
2022-10-14T03:32:52.760Z,982.25
2022-10-14T03:38:24.563Z,982.16
2022-10-14T03:43:56.209Z,982.1
2022-10-14T03:49:28.072Z,982.07
2022-10-14T03:54:59.821Z,982.0
2022-10-14T04:00:31.405Z,982.03
2022-10-14T04:06:03.132Z,981.63
2022-10-14T04:11:34.868Z,981.79
2022-10-14T04:17:11.005Z,981.72
2022-10-14T04:22:42.690Z,981.58
2022-10-14T04:28:14.670Z,981.43
2022-10-14T04:33:46.173Z,981.42
2022-10-14T04:39:17.909Z,981.4
2022-10-14T04:44:49.606Z,981.39
2022-10-14T04:50:21.371Z,981.01
2022-10-14T04:55:53.034Z,981.42
2022-10-14T05:01:25.137Z,981.4
2022-10-14T05:06:56.493Z,981.45
2022-10-14T05:12:28.234Z,981.18
2022-10-14T05:18:04.412Z,981.09
2022-10-14T05:23:36.194Z,981.15
2022-10-14T05:29:07.780Z,981.08
2022-10-14T05:34:39.589Z,980.85
2022-10-14T05:40:11.238Z,981.03
2022-10-14T05:45:42.949Z,980.77
2022-10-14T05:51:14.742Z,980.68
2022-10-14T05:56:46.374Z,981.03
2022-10-14T06:02:18.188Z,981.02
2022-10-14T06:07:49.849Z,980.99
2022-10-14T06:13:21.580Z,981.5
2022-10-14T06:18:57.734Z,981.26
2022-10-14T06:24:29.367Z,981.45
2022-10-14T06:30:01.534Z,981.6
2022-10-14T06:35:32.869Z,981.35
2022-10-14T06:41:04.677Z,981.62
2022-10-14T06:46:36.424Z,981.29
2022-10-14T06:52:08.068Z,981.37
2022-10-14T06:57:39.775Z,981.29
2022-10-14T07:03:11.562Z,981.55
2022-10-14T07:08:43.199Z,981.44
2022-10-14T07:14:15.184Z,981.65
2022-10-14T07:19:51.500Z,981.83
2022-10-14T07:25:22.851Z,981.54
2022-10-14T07:30:54.504Z,981.74
2022-10-14T07:36:26.206Z,982.02
2022-10-14T07:41:58.365Z,982.22
2022-10-14T07:47:29.670Z,982.52
2022-10-14T07:53:02.162Z,982.28
2022-10-14T07:58:33.138Z,982.05
2022-10-14T08:04:04.889Z,981.89
2022-10-14T08:09:36.563Z,982.29
2022-10-14T08:15:08.273Z,981.75
2022-10-14T08:20:44.466Z,982.19
2022-10-14T08:26:16.209Z,981.83
2022-10-14T08:31:47.910Z,981.87
2022-10-14T08:37:19.608Z,981.88
2022-10-14T08:42:51.305Z,982.08
2022-10-14T08:48:23.061Z,982.25
2022-10-14T08:53:54.806Z,982.54
2022-10-14T08:59:26.565Z,982.64
2022-10-14T09:04:58.188Z,982.62
2022-10-14T09:10:29.958Z,982.43
2022-10-14T09:16:01.701Z,982.43
2022-10-14T09:21:54.058Z,982.48
2022-10-14T09:27:09.532Z,982.25
2022-10-14T09:32:41.206Z,982.27
2022-10-14T09:38:13.007Z,982.23
2022-10-14T09:43:45.574Z,982.04
2022-10-14T09:49:17.293Z,982.19
2022-10-14T10:00:20.814Z,982.36
2022-10-14T10:05:52.519Z,982.31
2022-10-14T10:11:24.213Z,982.19
2022-10-14T10:16:55.983Z,982.28
2022-10-14T10:22:32.317Z,981.73
2022-10-14T10:28:03.819Z,981.95
2022-10-14T10:33:35.533Z,982.08
2022-10-14T10:39:07.225Z,981.79
2022-10-14T10:44:39.147Z,981.72
2022-10-14T10:50:10.847Z,981.44
2022-10-14T10:55:42.772Z,981.42
2022-10-14T11:01:14.474Z,981.63
2022-10-14T11:06:45.977Z,981.14
2022-10-14T11:12:17.706Z,980.87
2022-10-14T11:17:49.709Z,981.17
2022-10-14T11:23:25.496Z,980.39
2022-10-14T11:28:57.324Z,980.24
2022-10-14T11:34:28.941Z,980.68
2022-10-14T11:40:00.577Z,980.67
2022-10-14T11:45:32.364Z,981.04
2022-10-14T11:51:04.045Z,980.94
2022-10-14T11:56:35.799Z,980.84
2022-10-14T12:02:07.682Z,980.65
2022-10-14T12:07:39.250Z,980.65
2022-10-14T12:13:11.042Z,980.09
2022-10-14T12:18:42.678Z,980.73
2022-10-14T12:24:20.835Z,980.6
2022-10-14T12:29:52.483Z,980.69
2022-10-14T12:35:24.257Z,980.65
2022-10-14T12:40:56.145Z,980.71
2022-10-14T12:46:27.596Z,980.65
2022-10-14T12:51:59.344Z,980.77
2022-10-14T12:57:31.081Z,980.47
2022-10-14T13:03:03.765Z,980.22
2022-10-14T13:08:35.442Z,980.51
2022-10-14T13:14:07.193Z,980.44
2022-10-14T13:19:38.831Z,980.28
2022-10-14T13:25:14.972Z,979.9
2022-10-14T13:30:46.718Z,980.1
2022-10-14T13:36:18.499Z,979.96
2022-10-14T13:41:50.186Z,979.9
2022-10-14T13:47:22.807Z,979.88
2022-10-14T13:52:53.646Z,979.65
2022-10-14T13:58:25.693Z,979.22
2022-10-14T14:03:57.117Z,979.15
2022-10-14T14:09:28.860Z,979.05
2022-10-14T14:15:00.551Z,978.76
2022-10-14T14:20:32.302Z,978.27
2022-10-14T14:26:20.205Z,977.8
2022-10-14T14:32:08.813Z,978.11
2022-10-14T14:37:56.568Z,978.2
2022-10-14T14:42:45.776Z,978.41
2022-10-14T14:48:17.357Z,978.3
2022-10-14T14:53:48.961Z,978.67
2022-10-14T14:59:20.648Z,978.61
2022-10-14T15:04:52.678Z,978.81
2022-10-14T15:10:24.205Z,978.89
2022-10-14T15:15:55.947Z,978.63
2022-10-14T15:21:27.628Z,978.78
2022-10-14T15:27:03.794Z,978.7
2022-10-14T15:32:35.522Z,978.8
2022-10-14T15:38:07.186Z,978.86
2022-10-14T15:43:38.873Z,978.64
2022-10-14T15:49:10.673Z,978.43
2022-10-14T15:54:42.464Z,978.29
2022-10-14T16:00:15.230Z,978.24
2022-10-14T16:05:46.029Z,977.89
2022-10-14T16:11:17.596Z,978.21
2022-10-14T16:16:49.287Z,978.26
2022-10-14T16:22:20.952Z,977.94
2022-10-14T16:27:59.175Z,978.15
2022-10-14T16:33:30.794Z,978.12
2022-10-14T16:39:02.564Z,978.02
2022-10-14T16:44:34.293Z,977.92
2022-10-14T16:50:06.189Z,977.99
2022-10-14T16:55:37.716Z,977.77
2022-10-14T17:01:10.945Z,978.03
2022-10-14T17:06:41.073Z,978.04
2022-10-14T17:12:14.907Z,977.98
2022-10-14T17:17:44.724Z,977.95
2022-10-14T17:23:16.394Z,978.07
2022-10-14T17:28:52.701Z,978.18
2022-10-14T17:34:24.180Z,977.84
2022-10-14T17:39:56.407Z,977.93
2022-10-14T17:45:27.641Z,978.01
2022-10-14T17:50:59.285Z,978.08
2022-10-14T17:56:31.077Z,978.01
2022-10-14T18:02:04.742Z,978.1
2022-10-14T18:07:34.785Z,977.9
2022-10-14T18:13:06.472Z,977.58
2022-10-14T18:18:38.251Z,977.94
2022-10-14T18:24:10.018Z,977.82
2022-10-14T18:29:46.366Z,977.27
2022-10-14T18:35:17.842Z,977.16
2022-10-14T18:40:49.739Z,977.33
2022-10-14T18:46:21.605Z,977.13
2022-10-14T18:51:53.100Z,976.99
2022-10-14T18:57:24.680Z,976.58
2022-10-14T19:02:56.419Z,976.65
2022-10-14T19:08:28.242Z,976.78
2022-10-14T19:13:59.872Z,976.59
2022-10-14T19:19:31.559Z,976.77
2022-10-14T19:25:03.351Z,976.93
2022-10-14T19:30:39.458Z,976.78
2022-10-14T19:36:11.193Z,976.36
2022-10-14T19:41:43.104Z,976.43
2022-10-14T19:47:14.682Z,976.04
2022-10-14T19:52:46.359Z,976.15
2022-10-14T19:58:18.066Z,976.22
2022-10-14T20:03:49.959Z,976.21
2022-10-14T20:09:21.496Z,976.47
2022-10-14T20:14:53.211Z,976.31
2022-10-14T20:20:24.943Z,975.94
2022-10-14T20:25:56.703Z,976.04
2022-10-14T20:31:34.813Z,976.02
2022-10-14T20:37:06.488Z,976.31
2022-10-14T20:42:38.183Z,976.02
2022-10-14T20:48:09.939Z,976.47
2022-10-14T20:59:13.418Z,976.17
2022-10-14T21:04:45.102Z,976.26
2022-10-14T21:10:16.934Z,976.47
2022-10-14T21:15:48.511Z,976.1
2022-10-14T21:21:20.206Z,975.87
2022-10-14T21:26:52.030Z,976.34
2022-10-14T21:32:28.114Z,976.09
2022-10-14T21:37:59.842Z,976.17
2022-10-14T21:43:31.562Z,976.48
2022-10-14T21:49:03.338Z,976.3
2022-10-14T21:54:35.241Z,976.15
2022-10-14T22:00:06.702Z,976.54
2022-10-14T22:05:38.446Z,976.06
2022-10-14T22:11:10.402Z,976.26
2022-10-14T22:16:42.025Z,976.27
2022-10-14T22:22:13.605Z,976.23
2022-10-14T22:27:45.497Z,976.3
2022-10-14T22:33:21.474Z,976.16
2022-10-14T22:38:53.159Z,976.47
2022-10-14T22:44:24.833Z,976.15
2022-10-14T22:49:56.573Z,976.33
2022-10-14T22:55:28.273Z,976.27
2022-10-14T23:01:00.042Z,976.37
2022-10-14T23:06:31.722Z,976.26
2022-10-14T23:12:10.487Z,976.2
2022-10-14T23:17:42.242Z,976.11
2022-10-14T23:23:13.958Z,976.36
2022-10-14T23:28:45.978Z,976.42
2022-10-14T23:34:21.789Z,976.23
2022-10-14T23:39:53.450Z,976.41
2022-10-14T23:45:25.205Z,976.23
2022-10-14T23:50:57.188Z,976.24
2022-10-14T23:56:28.684Z,976.24
